createdAt,value
2017-10-16T00:00:14.558Z,0.00
2017-10-16T00:01:24.682Z,0.00
2017-10-16T00:02:33.328Z,0.00
2017-10-16T00:03:42.725Z,0.00
2017-10-16T00:04:53.659Z,0.00
2017-10-16T00:06:02.865Z,0.00
2017-10-16T00:07:12.178Z,0.00
2017-10-16T00:08:21.355Z,0.00
2017-10-16T00:09:30.037Z,0.00
2017-10-16T00:10:39.569Z,0.00
2017-10-16T00:11:49.715Z,0.00
2017-10-16T00:12:59.140Z,0.00
2017-10-16T00:14:07.772Z,0.00
2017-10-16T00:15:17.796Z,0.00
2017-10-16T00:16:26.891Z,0.00
2017-10-16T00:17:39.305Z,0.00
2017-10-16T00:18:45.869Z,0.00
2017-10-16T00:19:56.710Z,0.00
2017-10-16T00:21:05.949Z,0.00
2017-10-16T00:22:13.924Z,0.00
2017-10-16T00:23:24.215Z,0.00
2017-10-16T00:24:34.547Z,0.00
2017-10-16T00:25:43.570Z,0.00
2017-10-16T00:26:52.488Z,0.00
2017-10-16T00:28:01.323Z,0.00
2017-10-16T00:29:10.601Z,0.00
2017-10-16T00:30:20.077Z,0.00
2017-10-16T00:31:29.573Z,0.00
2017-10-16T00:32:39.001Z,0.00
2017-10-16T00:33:48.530Z,0.00
2017-10-16T00:34:57.976Z,0.00
2017-10-16T00:36:07.489Z,0.00
2017-10-16T00:37:16.867Z,0.00
2017-10-16T00:38:26.347Z,0.00
2017-10-16T00:39:35.821Z,0.00
2017-10-16T00:40:45.328Z,0.00
2017-10-16T00:41:54.794Z,0.00
2017-10-16T00:43:04.274Z,0.00
2017-10-16T00:44:13.761Z,0.00
2017-10-16T00:45:23.339Z,0.00
2017-10-16T00:46:32.730Z,0.00
2017-10-16T00:47:42.234Z,0.00
2017-10-16T00:48:51.720Z,0.00
2017-10-16T00:50:01.243Z,0.00
2017-10-16T00:51:10.736Z,0.00
2017-10-16T00:52:20.377Z,0.00
2017-10-16T00:53:29.719Z,0.00
2017-10-16T00:54:39.258Z,0.00
2017-10-16T00:55:48.807Z,0.00
2017-10-16T00:56:58.320Z,0.00
2017-10-16T00:58:07.749Z,0.00
2017-10-16T00:59:17.234Z,0.00
2017-10-16T01:00:26.836Z,0.00
2017-10-16T01:01:36.339Z,0.00
2017-10-16T01:02:45.770Z,0.00
2017-10-16T01:03:55.274Z,0.00
2017-10-16T01:05:04.791Z,0.00
2017-10-16T01:06:14.375Z,0.00
2017-10-16T01:07:23.888Z,0.00
2017-10-16T01:08:33.326Z,0.00
2017-10-16T01:09:42.853Z,0.00
2017-10-16T01:10:52.377Z,0.00
2017-10-16T01:12:01.909Z,0.00
2017-10-16T01:13:11.385Z,0.00
2017-10-16T01:14:20.905Z,0.00
2017-10-16T01:15:30.426Z,0.00
2017-10-16T01:16:39.962Z,0.00
2017-10-16T01:17:49.467Z,0.00
2017-10-16T01:18:59.065Z,0.00
2017-10-16T01:20:08.486Z,0.00
2017-10-16T01:21:18.066Z,0.00
2017-10-16T01:22:27.525Z,0.00
2017-10-16T01:23:37.039Z,0.00
2017-10-16T01:24:46.641Z,0.00
2017-10-16T01:25:56.077Z,0.00
2017-10-16T01:27:05.625Z,0.00
2017-10-16T01:28:15.130Z,0.00
2017-10-16T01:29:24.664Z,0.00
2017-10-16T01:30:34.161Z,0.00
2017-10-16T01:31:43.715Z,0.00
2017-10-16T01:32:53.265Z,0.00
2017-10-16T01:34:02.783Z,0.00
2017-10-16T01:35:12.257Z,0.00
2017-10-16T01:36:21.799Z,0.00
2017-10-16T01:37:31.324Z,0.00
2017-10-16T01:38:40.902Z,0.00
2017-10-16T01:39:50.345Z,0.00
2017-10-16T01:40:59.962Z,0.00
2017-10-16T01:42:09.427Z,0.00
2017-10-16T01:43:18.928Z,0.00
2017-10-16T01:44:28.458Z,0.00
2017-10-16T01:45:38.970Z,0.00
2017-10-16T01:46:47.699Z,0.00
2017-10-16T01:47:57.045Z,0.00
2017-10-16T01:49:06.651Z,0.00
2017-10-16T01:50:16.097Z,0.00
2017-10-16T01:51:25.637Z,0.00
2017-10-16T01:52:35.166Z,0.00
2017-10-16T01:53:44.671Z,0.00
2017-10-16T01:54:54.197Z,0.00
2017-10-16T01:56:03.757Z,0.00
2017-10-16T01:57:13.313Z,0.00
2017-10-16T01:58:22.819Z,0.00
2017-10-16T01:59:32.349Z,0.00
2017-10-16T02:00:41.880Z,0.00
2017-10-16T02:01:51.408Z,0.00
2017-10-16T02:03:00.963Z,0.00
2017-10-16T02:04:10.446Z,0.00
2017-10-16T02:05:20.000Z,0.00
2017-10-16T02:06:29.531Z,0.00
2017-10-16T02:07:39.089Z,0.00
2017-10-16T02:08:48.592Z,0.00
2017-10-16T02:09:58.129Z,0.00
2017-10-16T02:11:07.657Z,0.00
2017-10-16T02:12:17.302Z,0.00
2017-10-16T02:13:26.721Z,0.00
2017-10-16T02:14:36.345Z,0.00
2017-10-16T02:15:45.879Z,0.00
2017-10-16T02:16:55.332Z,0.00
2017-10-16T02:18:04.954Z,0.00
2017-10-16T02:19:14.403Z,0.00
2017-10-16T02:20:24.002Z,0.00
2017-10-16T02:21:33.470Z,0.00
2017-10-16T02:22:43.244Z,0.00
2017-10-16T02:23:52.539Z,0.00
2017-10-16T02:25:02.124Z,0.00
2017-10-16T02:26:11.614Z,0.00
2017-10-16T02:27:21.180Z,0.00
2017-10-16T02:28:30.728Z,0.00
2017-10-16T02:29:40.253Z,0.00
2017-10-16T02:30:49.744Z,0.00
2017-10-16T02:31:59.301Z,0.00
2017-10-16T02:33:09.019Z,0.00
2017-10-16T02:34:18.334Z,0.00
2017-10-16T02:35:27.870Z,0.00
2017-10-16T02:36:37.425Z,0.00
2017-10-16T02:37:47.247Z,0.00
2017-10-16T02:38:56.475Z,0.00
2017-10-16T02:40:06.016Z,0.00
2017-10-16T02:41:15.546Z,0.00
2017-10-16T02:42:25.133Z,0.00
2017-10-16T02:43:34.598Z,0.00
2017-10-16T02:44:44.136Z,0.00
2017-10-16T02:45:53.631Z,0.00
2017-10-16T02:47:03.234Z,0.00
2017-10-16T02:48:12.852Z,0.00
2017-10-16T02:49:22.214Z,0.00
2017-10-16T02:50:31.788Z,0.00
2017-10-16T02:51:41.268Z,0.00
2017-10-16T02:52:50.819Z,0.00
2017-10-16T02:54:00.347Z,0.00
2017-10-16T02:55:09.912Z,0.00
2017-10-16T02:56:19.518Z,0.00
2017-10-16T02:57:28.903Z,0.00
2017-10-16T02:58:39.451Z,0.00
2017-10-16T02:59:47.959Z,0.00
2017-10-16T03:00:58.490Z,0.00
2017-10-16T03:02:07.018Z,0.00
2017-10-16T03:03:16.624Z,0.00
2017-10-16T03:04:26.102Z,0.00
2017-10-16T03:05:35.687Z,0.00
2017-10-16T03:06:45.127Z,0.00
2017-10-16T03:07:54.746Z,0.00
2017-10-16T03:09:04.213Z,0.00
2017-10-16T03:10:13.714Z,0.00
2017-10-16T03:11:23.240Z,0.00
2017-10-16T03:12:32.764Z,0.00
2017-10-16T03:13:42.316Z,0.00
2017-10-16T03:14:51.828Z,0.00
2017-10-16T03:16:01.332Z,0.00
2017-10-16T03:17:10.857Z,0.00
2017-10-16T03:18:20.383Z,0.00
2017-10-16T03:19:29.937Z,0.00
2017-10-16T03:20:39.439Z,0.00
2017-10-16T03:21:48.962Z,0.00
2017-10-16T03:22:58.540Z,0.00
2017-10-16T03:24:08.039Z,0.00
2017-10-16T03:25:17.546Z,0.00
2017-10-16T03:26:27.132Z,0.00
2017-10-16T03:27:36.660Z,0.00
2017-10-16T03:28:46.193Z,0.00
2017-10-16T03:29:55.739Z,0.00
2017-10-16T03:31:05.253Z,0.00
2017-10-16T03:32:14.727Z,0.00
2017-10-16T03:33:24.327Z,0.00
2017-10-16T03:34:33.810Z,0.00
2017-10-16T03:35:43.321Z,0.00
2017-10-16T03:36:52.858Z,0.00
2017-10-16T03:38:02.397Z,0.00
2017-10-16T03:39:11.984Z,0.00
2017-10-16T03:40:21.472Z,0.00
2017-10-16T03:41:31.034Z,0.00
2017-10-16T03:42:40.547Z,0.00
2017-10-16T03:43:50.193Z,0.00
2017-10-16T03:44:59.649Z,0.00
2017-10-16T03:46:09.164Z,0.00
2017-10-16T03:47:18.701Z,0.00
2017-10-16T03:48:28.239Z,0.00
2017-10-16T03:49:38.026Z,0.00
2017-10-16T03:50:47.372Z,0.00
2017-10-16T03:51:56.864Z,0.00
2017-10-16T03:53:06.403Z,0.00
2017-10-16T03:54:15.963Z,0.00
2017-10-16T03:55:25.517Z,0.00
2017-10-16T03:56:35.033Z,0.00
2017-10-16T03:57:44.577Z,0.00
2017-10-16T03:58:54.114Z,0.00
2017-10-16T04:00:03.681Z,0.00
2017-10-16T04:01:13.247Z,0.00
2017-10-16T04:02:22.753Z,0.00
2017-10-16T04:03:32.311Z,0.00
2017-10-16T04:04:41.844Z,0.00
2017-10-16T04:05:51.659Z,0.00
2017-10-16T04:07:01.003Z,0.00
2017-10-16T04:08:10.533Z,0.00
2017-10-16T04:09:20.010Z,0.00
2017-10-16T04:10:29.611Z,0.00
2017-10-16T04:11:39.089Z,0.00
2017-10-16T04:12:48.665Z,0.00
2017-10-16T04:13:58.188Z,0.00
2017-10-16T04:15:07.817Z,0.00
2017-10-16T04:16:17.533Z,0.00
2017-10-16T04:17:26.879Z,0.00
2017-10-16T04:18:36.409Z,0.00
2017-10-16T04:19:45.939Z,0.00
2017-10-16T04:20:55.655Z,0.00
2017-10-16T04:22:05.006Z,0.00
2017-10-16T04:23:14.538Z,0.00
2017-10-16T04:24:24.080Z,0.00
2017-10-16T04:25:33.725Z,0.00
2017-10-16T04:26:43.224Z,0.00
2017-10-16T04:27:52.757Z,0.00
2017-10-16T04:29:02.285Z,0.00
2017-10-16T04:30:11.816Z,0.00
2017-10-16T04:31:21.381Z,0.00
2017-10-16T04:32:30.908Z,0.00
2017-10-16T04:33:40.508Z,0.00
2017-10-16T04:34:50.039Z,0.00
2017-10-16T04:35:59.564Z,0.00
2017-10-16T04:37:09.178Z,0.00
2017-10-16T04:38:18.637Z,0.00
2017-10-16T04:39:28.264Z,0.00
2017-10-16T04:40:37.718Z,0.00
2017-10-16T04:41:47.341Z,0.00
2017-10-16T04:42:56.817Z,0.00
2017-10-16T04:44:06.385Z,0.00
2017-10-16T04:45:15.915Z,0.00
2017-10-16T04:46:25.808Z,0.00
2017-10-16T04:47:35.080Z,0.00
2017-10-16T04:48:44.575Z,0.00
2017-10-16T04:49:54.096Z,0.00
2017-10-16T04:51:03.644Z,0.00
2017-10-16T04:52:13.213Z,0.00
2017-10-16T04:53:22.833Z,0.00
2017-10-16T04:54:32.363Z,0.00
2017-10-16T04:55:41.831Z,0.00
2017-10-16T04:56:51.396Z,0.00
2017-10-16T04:58:00.921Z,0.00
2017-10-16T04:59:10.464Z,0.00
2017-10-16T05:00:20.020Z,0.00
2017-10-16T05:01:29.584Z,0.00
2017-10-16T05:02:39.178Z,0.00
2017-10-16T05:03:48.710Z,0.00
2017-10-16T05:04:58.242Z,0.00
2017-10-16T05:06:07.749Z,0.00
2017-10-16T05:07:17.327Z,0.00
2017-10-16T05:08:26.934Z,0.00
2017-10-16T05:09:36.390Z,0.00
2017-10-16T05:10:45.943Z,0.00
2017-10-16T05:11:55.514Z,0.00
2017-10-16T05:13:05.045Z,0.00
2017-10-16T05:14:14.593Z,0.00
2017-10-16T05:15:24.226Z,0.00
2017-10-16T05:16:33.687Z,0.00
2017-10-16T05:17:43.251Z,0.00
2017-10-16T05:18:52.773Z,0.00
2017-10-16T05:20:02.342Z,0.00
2017-10-16T05:21:11.973Z,0.00
2017-10-16T05:22:21.434Z,0.00
2017-10-16T05:23:31.042Z,0.00
2017-10-16T05:24:40.500Z,0.00
2017-10-16T05:25:50.045Z,0.00
2017-10-16T05:26:59.646Z,0.00
2017-10-16T05:28:09.341Z,0.00
2017-10-16T05:29:18.687Z,0.00
2017-10-16T05:30:28.406Z,0.00
2017-10-16T05:31:37.762Z,0.00
2017-10-16T05:32:47.327Z,0.00
2017-10-16T05:33:56.911Z,0.00
2017-10-16T05:35:06.440Z,0.00
2017-10-16T05:36:15.938Z,0.00
2017-10-16T05:37:25.519Z,0.00
2017-10-16T05:38:35.032Z,0.00
2017-10-16T05:39:44.565Z,0.00
2017-10-16T05:40:54.273Z,0.00
2017-10-16T05:42:03.726Z,0.00
2017-10-16T05:43:13.210Z,5.62
2017-10-16T05:44:22.727Z,5.62
2017-10-16T05:45:32.317Z,5.62
2017-10-16T05:46:41.846Z,5.62
2017-10-16T05:47:51.369Z,5.62
2017-10-16T05:49:00.876Z,5.62
2017-10-16T05:50:10.418Z,11.25
2017-10-16T05:51:19.976Z,11.25
2017-10-16T05:52:29.501Z,11.25
2017-10-16T05:53:39.318Z,11.25
2017-10-16T05:54:48.564Z,11.25
2017-10-16T05:55:58.197Z,16.87
2017-10-16T05:57:07.723Z,16.87
2017-10-16T05:58:17.202Z,16.87
2017-10-16T05:59:26.861Z,22.50
2017-10-16T06:00:36.317Z,22.50
2017-10-16T06:01:45.802Z,22.50
2017-10-16T06:02:55.398Z,28.12
2017-10-16T06:04:04.908Z,28.12
2017-10-16T06:05:14.428Z,28.12
2017-10-16T06:06:23.968Z,28.12
2017-10-16T06:07:33.605Z,33.75
2017-10-16T06:08:43.316Z,33.75
2017-10-16T06:09:53.585Z,39.37
2017-10-16T06:11:02.191Z,39.37
2017-10-16T06:12:11.721Z,39.37
2017-10-16T06:13:21.274Z,45.00
2017-10-16T06:14:30.784Z,45.00
2017-10-16T06:15:40.316Z,50.62
2017-10-16T06:16:50.001Z,50.62
2017-10-16T06:17:59.417Z,56.25
2017-10-16T06:19:08.980Z,56.25
2017-10-16T06:20:18.504Z,56.25
2017-10-16T06:21:28.144Z,61.87
2017-10-16T06:22:37.703Z,61.87
2017-10-16T06:23:47.251Z,67.50
2017-10-16T06:24:56.762Z,73.12
2017-10-16T06:26:06.291Z,73.12
2017-10-16T06:27:15.824Z,73.12
2017-10-16T06:28:25.638Z,73.12
2017-10-16T06:29:34.910Z,78.75
2017-10-16T06:30:44.516Z,84.37
2017-10-16T06:31:54.054Z,90.00
2017-10-16T06:33:03.579Z,90.00
2017-10-16T06:34:13.396Z,95.62
2017-10-16T06:35:22.739Z,101.25
2017-10-16T06:36:32.349Z,101.25
2017-10-16T06:37:41.806Z,106.87
2017-10-16T06:38:51.389Z,112.50
2017-10-16T06:40:00.927Z,112.50
2017-10-16T06:41:10.502Z,112.50
2017-10-16T06:42:20.062Z,118.12
2017-10-16T06:43:29.656Z,118.12
2017-10-16T06:44:39.476Z,123.75
2017-10-16T06:45:48.770Z,123.75
2017-10-16T06:46:58.341Z,129.37
2017-10-16T06:48:07.984Z,135.00
2017-10-16T06:49:17.503Z,135.00
2017-10-16T06:50:27.049Z,129.37
2017-10-16T06:51:36.619Z,135.00
2017-10-16T06:52:46.209Z,146.25
2017-10-16T06:53:55.840Z,146.25
2017-10-16T06:55:05.388Z,146.25
2017-10-16T06:56:15.007Z,146.25
2017-10-16T06:57:24.498Z,140.62
2017-10-16T06:58:34.069Z,140.62
2017-10-16T06:59:43.668Z,151.87
2017-10-16T07:00:53.230Z,151.87
2017-10-16T07:02:02.801Z,163.12
2017-10-16T07:03:12.394Z,157.50
2017-10-16T07:04:22.214Z,163.12
2017-10-16T07:05:31.557Z,151.87
2017-10-16T07:06:41.122Z,157.50
2017-10-16T07:07:50.722Z,168.75
2017-10-16T07:09:00.287Z,163.12
2017-10-16T07:10:09.893Z,174.37
2017-10-16T07:11:19.480Z,163.12
2017-10-16T07:12:29.046Z,168.75
2017-10-16T07:13:38.677Z,174.37
2017-10-16T07:14:48.221Z,180.00
2017-10-16T07:15:57.841Z,185.62
2017-10-16T07:17:07.381Z,191.25
2017-10-16T07:18:17.003Z,191.25
2017-10-16T07:19:26.545Z,185.62
2017-10-16T07:20:36.185Z,196.87
2017-10-16T07:21:45.736Z,185.62
2017-10-16T07:22:55.331Z,191.25
2017-10-16T07:24:04.925Z,185.62
2017-10-16T07:25:14.527Z,196.87
2017-10-16T07:26:24.128Z,208.12
2017-10-16T07:27:33.685Z,219.37
2017-10-16T07:28:43.290Z,225.00
2017-10-16T07:29:52.922Z,213.75
2017-10-16T07:31:02.462Z,236.25
2017-10-16T07:32:12.085Z,247.50
2017-10-16T07:33:21.665Z,253.12
2017-10-16T07:34:31.351Z,270.00
2017-10-16T07:35:40.916Z,292.50
2017-10-16T07:36:50.492Z,315.00
2017-10-16T07:38:00.145Z,303.75
2017-10-16T07:39:09.781Z,309.37
2017-10-16T07:40:19.376Z,298.12
2017-10-16T07:41:29.046Z,315.00
2017-10-16T07:42:38.583Z,315.00
2017-10-16T07:43:48.317Z,320.62
2017-10-16T07:44:57.843Z,315.00
2017-10-16T07:46:07.476Z,303.75
2017-10-16T07:47:17.187Z,270.00
2017-10-16T07:48:26.742Z,281.25
2017-10-16T07:49:36.341Z,292.50
2017-10-16T07:50:46.022Z,264.37
2017-10-16T07:51:55.641Z,264.37
2017-10-16T07:53:05.220Z,258.75
2017-10-16T07:54:14.850Z,264.37
2017-10-16T07:55:24.539Z,264.37
2017-10-16T07:56:34.107Z,275.62
2017-10-16T07:57:43.713Z,281.25
2017-10-16T07:58:53.966Z,337.50
2017-10-16T08:00:03.076Z,303.75
2017-10-16T08:01:12.979Z,309.37
2017-10-16T08:02:22.242Z,315.00
2017-10-16T08:03:31.968Z,309.37
2017-10-16T08:04:41.600Z,303.75
2017-10-16T08:05:51.167Z,298.12
2017-10-16T08:07:00.868Z,326.25
2017-10-16T08:08:10.506Z,320.62
2017-10-16T08:09:20.072Z,326.25
2017-10-16T08:10:29.841Z,320.62
2017-10-16T08:11:39.376Z,343.12
2017-10-16T08:12:49.020Z,331.87
2017-10-16T08:13:59.180Z,331.87
2017-10-16T08:15:08.298Z,343.12
2017-10-16T08:16:17.961Z,348.75
2017-10-16T08:17:27.667Z,337.50
2017-10-16T08:18:37.305Z,343.12
2017-10-16T08:19:46.895Z,348.75
2017-10-16T08:20:56.566Z,337.50
2017-10-16T08:22:06.223Z,360.00
2017-10-16T08:23:15.848Z,360.00
2017-10-16T08:24:25.575Z,354.37
2017-10-16T08:25:35.195Z,399.37
2017-10-16T08:26:45.359Z,376.87
2017-10-16T08:27:54.475Z,371.25
2017-10-16T08:29:04.203Z,360.00
2017-10-16T08:30:13.837Z,399.37
2017-10-16T08:31:23.586Z,421.87
2017-10-16T08:32:33.229Z,466.87
2017-10-16T08:33:42.827Z,393.75
2017-10-16T08:34:53.591Z,399.37
2017-10-16T08:36:02.200Z,393.75
2017-10-16T08:37:11.868Z,399.37
2017-10-16T08:38:21.571Z,371.25
2017-10-16T08:39:31.208Z,376.87
2017-10-16T08:40:40.879Z,376.87
2017-10-16T08:41:50.587Z,354.37
2017-10-16T08:43:00.227Z,365.62
2017-10-16T08:44:09.941Z,427.50
2017-10-16T08:45:19.670Z,360.00
2017-10-16T08:46:29.305Z,376.87
2017-10-16T08:47:38.969Z,399.37
2017-10-16T08:48:48.677Z,365.62
2017-10-16T08:49:58.407Z,354.37
2017-10-16T08:51:08.116Z,365.62
2017-10-16T08:52:17.696Z,371.25
2017-10-16T08:53:27.407Z,393.75
2017-10-16T08:54:37.046Z,410.62
2017-10-16T08:55:46.738Z,438.75
2017-10-16T08:56:56.510Z,405.00
2017-10-16T08:58:06.328Z,393.75
2017-10-16T08:59:16.790Z,365.62
2017-10-16T09:00:25.588Z,365.62
2017-10-16T09:01:35.248Z,360.00
2017-10-16T09:02:44.905Z,405.00
2017-10-16T09:03:54.577Z,416.25
2017-10-16T09:05:04.349Z,405.00
2017-10-16T09:06:13.990Z,410.62
2017-10-16T09:07:23.664Z,410.62
2017-10-16T09:08:33.444Z,433.12
2017-10-16T09:09:44.110Z,421.87
2017-10-16T09:10:53.746Z,405.00
2017-10-16T09:12:02.458Z,405.00
2017-10-16T09:13:12.212Z,421.87
2017-10-16T09:14:21.923Z,455.62
2017-10-16T09:15:31.659Z,438.75
2017-10-16T09:16:41.296Z,511.87
2017-10-16T09:17:51.291Z,416.25
2017-10-16T09:19:00.724Z,405.00
2017-10-16T09:20:10.471Z,433.12
2017-10-16T09:21:20.174Z,444.37
2017-10-16T09:22:31.201Z,348.75
2017-10-16T09:23:39.713Z,360.00
2017-10-16T09:24:49.350Z,365.62
2017-10-16T09:25:59.076Z,309.37
2017-10-16T09:27:08.778Z,298.12
2017-10-16T09:28:18.564Z,298.12
2017-10-16T09:29:28.186Z,303.75
2017-10-16T09:30:37.915Z,309.37
2017-10-16T09:31:47.646Z,298.12
2017-10-16T09:32:57.330Z,292.50
2017-10-16T09:34:07.021Z,320.62
2017-10-16T09:35:16.749Z,309.37
2017-10-16T09:36:26.484Z,315.00
2017-10-16T09:37:36.126Z,315.00
2017-10-16T09:38:45.876Z,303.75
2017-10-16T09:39:55.552Z,337.50
2017-10-16T09:41:05.243Z,371.25
2017-10-16T09:42:14.958Z,320.62
2017-10-16T09:43:24.683Z,326.25
2017-10-16T09:44:34.375Z,326.25
2017-10-16T09:45:44.090Z,303.75
2017-10-16T09:46:53.806Z,309.37
2017-10-16T09:48:03.529Z,298.12
2017-10-16T09:49:13.254Z,298.12
2017-10-16T09:50:22.943Z,298.12
2017-10-16T09:51:32.654Z,303.75
2017-10-16T09:52:42.883Z,303.75
2017-10-16T09:53:52.118Z,309.37
2017-10-16T09:55:01.810Z,309.37
2017-10-16T09:56:11.535Z,315.00
2017-10-16T09:57:21.252Z,315.00
2017-10-16T09:58:31.996Z,315.00
2017-10-16T09:59:40.780Z,320.62
2017-10-16T10:00:50.513Z,320.62
2017-10-16T10:02:00.250Z,320.62
2017-10-16T10:03:09.887Z,326.25
2017-10-16T10:04:19.738Z,331.87
2017-10-16T10:05:29.456Z,331.87
2017-10-16T10:06:39.108Z,343.12
2017-10-16T10:07:48.855Z,348.75
2017-10-16T10:08:58.846Z,360.00
2017-10-16T10:10:08.397Z,365.62
2017-10-16T10:11:18.163Z,371.25
2017-10-16T10:12:27.870Z,376.87
2017-10-16T10:13:38.218Z,376.87
2017-10-16T10:14:47.966Z,382.50
2017-10-16T10:15:57.153Z,388.12
2017-10-16T10:17:06.921Z,399.37
2017-10-16T10:18:16.827Z,410.62
2017-10-16T10:19:26.502Z,421.87
2017-10-16T10:20:36.250Z,427.50
2017-10-16T10:21:46.571Z,433.12
2017-10-16T10:22:56.334Z,444.37
2017-10-16T10:24:05.799Z,455.62
2017-10-16T10:25:15.455Z,466.87
2017-10-16T10:26:25.302Z,483.75
2017-10-16T10:27:35.104Z,511.87
2017-10-16T10:28:44.884Z,523.12
2017-10-16T10:29:55.347Z,534.37
2017-10-16T10:31:04.542Z,540.00
2017-10-16T10:32:14.399Z,545.62
2017-10-16T10:33:24.238Z,551.25
2017-10-16T10:34:34.166Z,562.50
2017-10-16T10:35:44.005Z,585.00
2017-10-16T10:36:53.849Z,613.12
2017-10-16T10:38:04.711Z,641.25
2017-10-16T10:39:13.618Z,675.00
2017-10-16T10:40:23.680Z,703.12
2017-10-16T10:41:33.498Z,725.62
2017-10-16T10:42:43.341Z,731.25
2017-10-16T10:43:53.355Z,731.25
2017-10-16T10:45:03.747Z,708.75
2017-10-16T10:46:13.169Z,680.62
2017-10-16T10:47:23.128Z,658.12
2017-10-16T10:48:33.101Z,646.87
2017-10-16T10:49:43.108Z,652.50
2017-10-16T10:50:53.639Z,658.12
2017-10-16T10:52:03.062Z,663.75
2017-10-16T10:53:13.051Z,652.50
2017-10-16T10:54:23.225Z,635.62
2017-10-16T10:55:33.275Z,607.50
2017-10-16T10:56:43.082Z,596.25
2017-10-16T10:57:53.173Z,607.50
2017-10-16T10:59:03.213Z,613.12
2017-10-16T11:00:13.160Z,607.50
2017-10-16T11:01:23.163Z,630.00
2017-10-16T11:02:33.343Z,635.62
2017-10-16T11:03:43.235Z,652.50
2017-10-16T11:04:53.258Z,680.62
2017-10-16T11:06:03.383Z,686.25
2017-10-16T11:07:13.344Z,697.50
2017-10-16T11:08:23.421Z,703.12
2017-10-16T11:09:33.456Z,708.75
2017-10-16T11:10:43.552Z,691.87
2017-10-16T11:11:53.591Z,703.12
2017-10-16T11:13:03.670Z,697.50
2017-10-16T11:14:13.945Z,703.12
2017-10-16T11:15:23.846Z,703.12
2017-10-16T11:16:33.980Z,686.25
2017-10-16T11:17:44.054Z,680.62
2017-10-16T11:18:55.753Z,680.62
2017-10-16T11:20:04.390Z,663.75
2017-10-16T11:21:14.429Z,652.50
2017-10-16T11:22:24.651Z,641.25
2017-10-16T11:23:34.631Z,658.12
2017-10-16T11:24:44.763Z,646.87
2017-10-16T11:25:55.092Z,658.12
2017-10-16T11:27:05.015Z,675.00
2017-10-16T11:28:15.139Z,663.75
2017-10-16T11:29:25.343Z,720.00
2017-10-16T11:30:35.427Z,736.87
2017-10-16T11:31:45.631Z,748.12
2017-10-16T11:35:11.931Z,298.12
2017-10-16T11:36:23.833Z,753.75
2017-10-16T11:37:33.758Z,765.00
2017-10-16T11:38:44.311Z,742.50
2017-10-16T11:39:53.825Z,748.12
2017-10-16T11:41:04.111Z,759.37
2017-10-16T11:42:13.954Z,765.00
2017-10-16T11:43:24.037Z,765.00
2017-10-16T11:44:34.142Z,742.50
2017-10-16T11:45:44.258Z,742.50
2017-10-16T11:46:54.377Z,742.50
2017-10-16T11:48:05.682Z,787.50
2017-10-16T11:49:15.095Z,776.25
2017-10-16T11:50:25.351Z,787.50
2017-10-16T11:51:34.901Z,770.62
2017-10-16T11:52:45.007Z,753.75
2017-10-16T11:53:55.172Z,720.00
2017-10-16T11:55:05.292Z,703.12
2017-10-16T11:56:15.435Z,697.50
2017-10-16T11:57:25.625Z,691.87
2017-10-16T11:58:35.708Z,697.50
2017-10-16T11:59:46.480Z,697.50
2017-10-16T12:00:56.552Z,697.50
2017-10-16T12:02:06.117Z,686.25
2017-10-16T12:03:16.223Z,680.62
2017-10-16T12:04:26.330Z,675.00
2017-10-16T12:05:37.103Z,675.00
2017-10-16T12:06:46.677Z,680.62
2017-10-16T12:07:56.701Z,691.87
2017-10-16T12:09:06.782Z,691.87
2017-10-16T12:10:16.897Z,703.12
2017-10-16T12:11:27.491Z,686.25
2017-10-16T12:12:37.438Z,686.25
2017-10-16T12:13:47.225Z,669.37
2017-10-16T12:14:57.828Z,669.37
2017-10-16T12:16:07.952Z,675.00
2017-10-16T12:17:17.590Z,680.62
2017-10-16T12:18:27.775Z,680.62
2017-10-16T12:19:37.817Z,680.62
2017-10-16T12:20:48.261Z,680.62
2017-10-16T12:21:58.648Z,675.00
2017-10-16T12:23:08.461Z,675.00
2017-10-16T12:24:18.626Z,691.87
2017-10-16T12:25:30.184Z,765.00
2017-10-16T12:26:38.730Z,810.00
2017-10-16T12:27:49.766Z,753.75
2017-10-16T12:28:59.320Z,731.25
2017-10-16T12:30:09.555Z,691.87
2017-10-16T12:31:19.912Z,697.50
2017-10-16T12:32:29.750Z,703.12
2017-10-16T12:33:40.504Z,742.50
2017-10-16T12:34:50.339Z,781.87
2017-10-16T12:36:00.077Z,742.50
2017-10-16T12:37:10.325Z,669.37
2017-10-16T12:38:21.267Z,658.12
2017-10-16T12:39:30.777Z,748.12
2017-10-16T12:40:41.579Z,669.37
2017-10-16T12:41:51.261Z,720.00
2017-10-16T12:43:01.744Z,641.25
2017-10-16T12:44:11.806Z,635.62
2017-10-16T12:45:23.355Z,759.37
2017-10-16T12:46:32.401Z,658.12
2017-10-16T12:47:42.679Z,652.50
2017-10-16T12:48:53.002Z,658.12
2017-10-16T12:50:03.310Z,618.75
2017-10-16T12:51:13.463Z,596.25
2017-10-16T12:52:23.766Z,579.37
2017-10-16T12:53:34.107Z,556.87
2017-10-16T12:54:44.338Z,534.37
2017-10-16T12:55:54.525Z,528.75
2017-10-16T12:57:04.760Z,523.12
2017-10-16T12:58:15.673Z,528.75
2017-10-16T12:59:25.231Z,534.37
2017-10-16T13:00:35.985Z,528.75
2017-10-16T13:01:46.232Z,517.50
2017-10-16T13:02:56.486Z,517.50
2017-10-16T13:04:06.214Z,545.62
2017-10-16T13:05:16.360Z,517.50
2017-10-16T13:06:26.680Z,523.12
2017-10-16T13:07:36.852Z,500.62
2017-10-16T13:08:47.691Z,495.00
2017-10-16T13:09:57.832Z,495.00
2017-10-16T13:11:07.401Z,506.25
2017-10-16T13:12:17.642Z,500.62
2017-10-16T13:13:27.902Z,517.50
2017-10-16T13:14:38.047Z,540.00
2017-10-16T13:15:48.253Z,528.75
2017-10-16T13:16:58.525Z,528.75
2017-10-16T13:18:09.311Z,568.12
2017-10-16T13:19:19.024Z,635.62
2017-10-16T13:20:29.190Z,635.62
2017-10-16T13:21:39.513Z,624.37
2017-10-16T13:22:49.768Z,618.75
2017-10-16T13:24:00.126Z,613.12
2017-10-16T13:25:10.368Z,607.50
2017-10-16T13:26:21.220Z,607.50
2017-10-16T13:27:31.248Z,607.50
2017-10-16T13:28:41.466Z,618.75
2017-10-16T13:29:51.819Z,630.00
2017-10-16T13:31:02.217Z,641.25
2017-10-16T13:32:13.245Z,635.62
2017-10-16T13:33:23.017Z,641.25
2017-10-16T13:34:34.157Z,635.62
2017-10-16T13:35:43.879Z,630.00
2017-10-16T13:36:54.364Z,624.37
2017-10-16T13:38:05.230Z,613.12
2017-10-16T13:39:15.869Z,601.87
2017-10-16T13:40:26.132Z,596.25
2017-10-16T13:41:36.037Z,585.00
2017-10-16T13:42:47.035Z,573.75
2017-10-16T13:43:57.003Z,562.50
2017-10-16T13:45:07.353Z,568.12
2017-10-16T13:46:17.879Z,562.50
2017-10-16T13:47:28.332Z,556.87
2017-10-16T13:48:38.682Z,545.62
2017-10-16T13:49:49.826Z,528.75
2017-10-16T13:50:59.512Z,511.87
2017-10-16T13:52:09.937Z,500.62
2017-10-16T13:53:20.463Z,478.12
2017-10-16T13:54:30.854Z,466.87
2017-10-16T13:55:41.159Z,461.25
2017-10-16T13:56:51.647Z,455.62
2017-10-16T13:58:01.957Z,450.00
2017-10-16T13:59:12.518Z,444.37
2017-10-16T14:00:22.767Z,438.75
2017-10-16T14:01:33.651Z,433.12
2017-10-16T14:02:43.505Z,427.50
2017-10-16T14:03:53.944Z,421.87
2017-10-16T14:05:04.403Z,416.25
2017-10-16T14:06:14.646Z,410.62
2017-10-16T14:07:25.020Z,405.00
2017-10-16T14:08:35.444Z,405.00
2017-10-16T14:09:45.893Z,399.37
2017-10-16T14:10:56.656Z,399.37
2017-10-16T14:12:06.593Z,393.75
2017-10-16T14:13:16.893Z,393.75
2017-10-16T14:14:27.294Z,388.12
2017-10-16T14:15:37.666Z,382.50
2017-10-16T14:16:47.997Z,382.50
2017-10-16T14:17:58.356Z,371.25
2017-10-16T14:19:08.715Z,371.25
2017-10-16T14:20:19.112Z,365.62
2017-10-16T14:21:29.442Z,365.62
2017-10-16T14:22:39.846Z,365.62
2017-10-16T14:23:50.195Z,360.00
2017-10-16T14:25:00.527Z,360.00
2017-10-16T14:26:10.876Z,354.37
2017-10-16T14:27:21.319Z,354.37
2017-10-16T14:28:31.668Z,348.75
2017-10-16T14:29:42.454Z,348.75
2017-10-16T14:30:52.310Z,343.12
2017-10-16T14:32:02.885Z,331.87
2017-10-16T14:33:13.916Z,326.25
2017-10-16T14:34:23.340Z,320.62
2017-10-16T14:35:33.706Z,315.00
2017-10-16T14:36:44.410Z,303.75
2017-10-16T14:37:54.798Z,298.12
2017-10-16T14:39:05.168Z,286.87
2017-10-16T14:40:14.883Z,275.62
2017-10-16T14:41:25.168Z,270.00
2017-10-16T14:42:35.448Z,270.00
2017-10-16T14:43:45.732Z,270.00
2017-10-16T14:44:56.183Z,270.00
2017-10-16T14:46:06.766Z,270.00
2017-10-16T14:47:16.985Z,270.00
2017-10-16T14:48:26.740Z,270.00
2017-10-16T14:49:37.065Z,270.00
2017-10-16T14:50:47.313Z,258.75
2017-10-16T14:51:58.045Z,247.50
2017-10-16T14:53:08.218Z,241.87
2017-10-16T14:54:17.864Z,230.62
2017-10-16T14:55:28.072Z,230.62